createdAt,value
2018-06-20T00:02:16.963Z,6.43
2018-06-20T00:04:47.592Z,6.50
2018-06-20T00:07:18.312Z,6.80
2018-06-20T00:09:48.747Z,7.90
2018-06-20T00:12:18.849Z,7.07
2018-06-20T00:14:49.058Z,6.60
2018-06-20T00:17:19.534Z,7.13
2018-06-20T00:19:49.731Z,7.07
2018-06-20T00:22:20.046Z,6.87
2018-06-20T00:24:50.677Z,8.33
2018-06-20T00:27:21.022Z,7.87
2018-06-20T00:29:51.245Z,7.37
2018-06-20T00:32:21.998Z,7.23
2018-06-20T00:34:52.250Z,7.87
2018-06-20T00:37:22.498Z,7.10
2018-06-20T00:39:53.107Z,6.60
2018-06-20T00:42:23.365Z,7.57
2018-06-20T00:44:53.878Z,7.43
2018-06-20T00:47:24.421Z,7.77
2018-06-20T00:49:54.962Z,7.53
2018-06-20T00:52:25.136Z,7.47
2018-06-20T00:54:55.889Z,7.53
2018-06-20T00:57:25.554Z,7.87
2018-06-20T00:59:55.689Z,8.97
2018-06-20T01:02:26.178Z,8.40
2018-06-20T01:04:56.437Z,8.47
2018-06-20T01:07:26.681Z,8.47
2018-06-20T01:09:57.175Z,8.10
2018-06-20T01:12:27.414Z,8.37
2018-06-20T01:14:57.913Z,8.93
2018-06-20T01:17:28.405Z,8.70
2018-06-20T01:19:58.985Z,8.40
2018-06-20T01:22:29.194Z,8.53
2018-06-20T01:24:59.641Z,8.03
2018-06-20T01:27:30.359Z,9.10
2018-06-20T01:30:00.625Z,8.80
2018-06-20T01:32:30.860Z,8.23
2018-06-20T01:35:01.364Z,9.03
2018-06-20T01:37:31.588Z,7.73
2018-06-20T01:40:01.797Z,7.20
2018-06-20T01:42:32.144Z,7.57
2018-06-20T01:45:02.807Z,7.57
2018-06-20T01:47:33.098Z,8.03
2018-06-20T01:50:03.535Z,8.40
2018-06-20T01:52:33.867Z,9.30
2018-06-20T01:55:04.497Z,8.10
2018-06-20T01:57:34.787Z,8.07
2018-06-20T02:00:05.677Z,8.23
2018-06-20T02:02:36.198Z,7.60
2018-06-20T02:05:06.626Z,8.17
2018-06-20T02:07:36.789Z,7.23
2018-06-20T02:10:07.052Z,6.80
2018-06-20T02:12:37.259Z,7.13
2018-06-20T02:15:07.666Z,7.47
2018-06-20T02:17:38.201Z,8.93
2018-06-20T02:20:09.158Z,8.10
2018-06-20T02:22:39.619Z,8.83
2018-06-20T02:25:10.275Z,7.73
2018-06-20T02:27:40.646Z,7.83
2018-06-20T02:30:11.118Z,7.43
2018-06-20T02:32:41.449Z,8.53
2018-06-20T02:35:11.766Z,8.20
2018-06-20T02:37:42.435Z,7.93
2018-06-20T02:40:12.976Z,8.30
2018-06-20T02:42:42.643Z,7.83
2018-06-20T02:45:12.708Z,8.40
2018-06-20T02:47:43.994Z,8.37
2018-06-20T02:50:15.418Z,9.07
2018-06-20T02:52:45.706Z,8.43
2018-06-20T02:55:15.917Z,9.10
2018-06-20T02:57:46.099Z,8.87
2018-06-20T03:00:16.344Z,8.30
2018-06-20T03:02:46.987Z,8.87
2018-06-20T03:05:17.234Z,9.37
2018-06-20T03:07:47.501Z,8.73
2018-06-20T03:10:17.781Z,8.90
2018-06-20T03:12:48.185Z,8.80
2018-06-20T03:15:18.465Z,8.20
2018-06-20T03:17:48.676Z,8.50
2018-06-20T03:20:18.970Z,8.40
2018-06-20T03:22:49.215Z,8.47
2018-06-20T03:25:22.738Z,7.90
2018-06-20T03:27:53.478Z,8.77
2018-06-20T03:30:23.821Z,8.87
2018-06-20T03:32:53.990Z,8.50
2018-06-20T03:35:28.650Z,8.10
2018-06-20T03:37:58.863Z,7.23
2018-06-20T03:40:29.090Z,7.00
2018-06-20T03:42:59.310Z,7.73
2018-06-20T03:45:29.702Z,7.27
2018-06-20T03:47:59.376Z,8.17
2018-06-20T03:50:29.762Z,7.13
2018-06-20T03:52:59.957Z,7.47
2018-06-20T03:55:30.186Z,7.70
2018-06-20T03:58:00.907Z,6.97
2018-06-20T04:00:31.459Z,7.10
2018-06-20T04:03:01.714Z,6.50
2018-06-20T04:05:31.986Z,6.50
2018-06-20T04:08:02.134Z,6.47
2018-06-20T04:10:32.365Z,40.13
2018-06-20T04:13:02.711Z,20.30
2018-06-20T04:15:33.547Z,7.50
2018-06-20T04:18:03.777Z,6.17
2018-06-20T04:20:33.512Z,6.37
2018-06-20T04:23:03.593Z,5.93
2018-06-20T04:25:33.786Z,5.40
2018-06-20T04:28:04.479Z,5.70
2018-06-20T04:30:34.709Z,6.57
2018-06-20T04:33:04.933Z,6.10
2018-06-20T04:35:35.738Z,6.10
2018-06-20T04:38:05.973Z,5.97
2018-06-20T04:40:35.661Z,6.40
2018-06-20T04:43:06.119Z,5.70
2018-06-20T04:45:36.671Z,6.03
2018-06-20T04:48:06.847Z,5.33
2018-06-20T04:50:37.937Z,5.53
2018-06-20T04:53:08.345Z,5.57
2018-06-20T04:55:38.825Z,4.90
2018-06-20T04:58:09.469Z,4.80
2018-06-20T05:00:39.647Z,5.70
2018-06-20T05:03:09.971Z,5.40
2018-06-20T05:05:40.639Z,5.30
2018-06-20T05:08:11.085Z,24.27
2018-06-20T05:10:41.278Z,6.10
2018-06-20T05:13:11.471Z,5.20
2018-06-20T05:15:42.054Z,5.03
2018-06-20T05:18:12.353Z,4.67
2018-06-20T05:20:42.582Z,5.27
2018-06-20T05:23:15.633Z,5.13
2018-06-20T05:25:46.137Z,5.60
2018-06-20T05:28:16.385Z,5.40
2018-06-20T05:30:50.355Z,5.93
2018-06-20T05:33:21.454Z,5.57
2018-06-20T05:35:51.816Z,5.63
2018-06-20T05:38:22.007Z,5.90
2018-06-20T05:40:51.712Z,6.20
2018-06-20T05:43:22.129Z,6.37
2018-06-20T05:45:52.420Z,6.47
2018-06-20T05:48:22.625Z,6.13
2018-06-20T05:50:53.102Z,6.70
2018-06-20T05:53:23.274Z,7.30
2018-06-20T05:55:53.523Z,7.60
2018-06-20T05:58:24.068Z,7.77
2018-06-20T06:00:54.805Z,7.30
2018-06-20T06:03:25.058Z,7.37
2018-06-20T06:06:14.289Z,8.37
2018-06-20T06:08:45.152Z,9.37
2018-06-20T06:11:15.438Z,8.40
2018-06-20T06:13:45.694Z,8.57
2018-06-20T06:16:16.373Z,9.30
2018-06-20T06:18:46.738Z,10.40
2018-06-20T06:21:17.034Z,10.33
2018-06-20T06:23:47.229Z,9.83
2018-06-20T06:26:17.474Z,12.30
2018-06-20T06:28:48.106Z,11.57
2018-06-20T06:31:18.402Z,11.47
2018-06-20T06:33:49.445Z,12.27
2018-06-20T06:36:20.594Z,12.70
2018-06-20T06:38:50.914Z,13.13
2018-06-20T06:41:21.503Z,13.70
2018-06-20T06:43:52.317Z,13.10
2018-06-20T06:46:22.743Z,12.67
2018-06-20T06:48:53.286Z,13.20
2018-06-20T06:51:23.981Z,14.80
2018-06-20T06:53:54.230Z,14.40
2018-06-20T06:56:25.170Z,14.27
2018-06-20T06:58:55.453Z,14.57
2018-06-20T07:01:25.626Z,15.77
2018-06-20T07:03:56.169Z,14.93
2018-06-20T07:06:26.382Z,17.13
2018-06-20T07:08:56.618Z,16.70
2018-06-20T07:11:27.446Z,16.30
2018-06-20T07:13:57.642Z,15.50
2018-06-20T07:16:27.866Z,17.73
2018-06-20T07:18:58.486Z,17.63
2018-06-20T07:21:28.742Z,16.83
2018-06-20T07:23:58.945Z,17.00
2018-06-20T07:26:29.850Z,16.03
2018-06-20T07:29:00.172Z,16.50
2018-06-20T07:31:30.752Z,16.10
2018-06-20T07:34:01.235Z,17.50
2018-06-20T07:36:31.447Z,16.60
2018-06-20T07:39:01.920Z,18.00
2018-06-20T07:41:32.365Z,16.50
2018-06-20T07:44:02.041Z,16.33
2018-06-20T07:46:32.481Z,16.30
2018-06-20T07:49:02.790Z,16.20
2018-06-20T07:51:33.021Z,14.47
2018-06-20T07:54:03.494Z,15.27
2018-06-20T07:56:33.753Z,14.07
2018-06-20T07:59:04.135Z,14.10
2018-06-20T08:01:50.698Z,15.10
2018-06-20T08:04:25.992Z,12.90
2018-06-20T08:07:01.517Z,13.33
2018-06-20T08:09:36.718Z,13.37
2018-06-20T08:12:12.254Z,13.23
2018-06-20T08:14:47.811Z,14.83
2018-06-20T08:19:26.269Z,13.60
2018-06-20T08:21:56.034Z,14.13
2018-06-20T08:24:26.275Z,13.13
2018-06-20T08:26:56.783Z,13.03
2018-06-20T08:29:27.029Z,12.87
2018-06-20T08:31:57.409Z,12.20
2018-06-20T08:34:27.883Z,12.73
2018-06-20T08:36:58.221Z,13.03
2018-06-20T08:39:28.838Z,15.13
2018-06-20T08:41:59.129Z,13.47
2018-06-20T08:44:29.648Z,13.73
2018-06-20T08:46:59.405Z,13.47
2018-06-20T08:49:29.622Z,14.33
2018-06-20T08:51:59.837Z,15.27
2018-06-20T08:54:30.446Z,16.10
2018-06-20T08:57:01.138Z,14.67
2018-06-20T08:59:31.766Z,16.83
2018-06-20T09:02:01.969Z,15.10
2018-06-20T09:04:37.737Z,16.40
2018-06-20T09:07:12.865Z,16.33
2018-06-20T09:09:48.053Z,14.53
2018-06-20T09:12:23.513Z,16.07
2018-06-20T09:14:58.873Z,19.07
2018-06-20T09:17:34.441Z,18.80
2018-06-20T09:20:05.701Z,21.13
2018-06-20T09:22:35.970Z,22.40
2018-06-20T09:25:06.338Z,23.37
2018-06-20T09:27:36.622Z,21.03
2018-06-20T09:30:06.620Z,20.10
2018-06-20T09:32:36.257Z,21.37
2018-06-20T09:35:06.373Z,21.87
2018-06-20T09:37:36.595Z,22.60
2018-06-20T09:40:06.261Z,20.33
2018-06-20T09:42:36.761Z,23.23
2018-06-20T09:45:06.944Z,22.47
2018-06-20T09:47:37.231Z,22.70
2018-06-20T09:50:13.058Z,23.03
2018-06-20T09:52:43.250Z,23.87
2018-06-20T09:55:13.678Z,23.50
2018-06-20T09:57:44.229Z,20.67
2018-06-20T10:00:19.393Z,20.43
2018-06-20T10:02:57.382Z,18.57
2018-06-20T10:05:32.229Z,19.93
2018-06-20T10:08:07.837Z,19.63
2018-06-20T10:10:43.389Z,17.50
2018-06-20T10:13:16.730Z,17.00
2018-06-20T10:15:47.460Z,16.60
2018-06-20T10:18:17.754Z,17.07
2018-06-20T10:20:48.010Z,16.40
2018-06-20T10:23:18.842Z,18.23
2018-06-20T10:25:49.229Z,16.33
2018-06-20T10:28:19.469Z,16.53
2018-06-20T10:30:49.978Z,16.00
2018-06-20T10:33:20.250Z,14.63
2018-06-20T10:35:50.641Z,15.90
2018-06-20T10:38:21.161Z,16.50
2018-06-20T10:40:51.782Z,16.40
2018-06-20T10:43:21.962Z,15.67
2018-06-20T10:48:03.813Z,15.27
2018-06-20T10:50:34.193Z,16.97
2018-06-20T10:53:04.621Z,17.70
2018-06-20T10:55:37.789Z,15.27
2018-06-20T10:58:14.040Z,14.37
2018-06-20T11:00:49.418Z,15.87
2018-06-20T11:03:25.237Z,15.13
2018-06-20T11:06:00.575Z,15.23
2018-06-20T11:08:35.570Z,15.57
2018-06-20T11:11:11.053Z,17.23
2018-06-20T11:13:42.485Z,15.47
2018-06-20T11:16:12.790Z,17.40
2018-06-20T11:18:46.374Z,18.87
2018-06-20T11:21:16.678Z,16.40
2018-06-20T11:23:47.586Z,16.73
2018-06-20T11:26:17.793Z,18.27
2018-06-20T11:28:48.006Z,16.47
2018-06-20T11:31:18.323Z,17.00
2018-06-20T11:33:49.310Z,18.23
2018-06-20T11:36:19.604Z,16.50
2018-06-20T11:38:49.817Z,16.27
2018-06-20T11:41:20.398Z,14.57
2018-06-20T11:43:50.925Z,16.00
2018-06-20T11:46:26.169Z,14.23
2018-06-20T11:48:56.949Z,17.03
2018-06-20T11:51:27.186Z,15.77
2018-06-20T11:53:56.905Z,15.23
2018-06-20T11:56:27.275Z,14.73
2018-06-20T11:59:02.029Z,14.87
2018-06-20T12:01:37.214Z,17.30
2018-06-20T12:04:12.807Z,14.77
2018-06-20T12:06:48.198Z,18.10
2018-06-20T12:09:23.513Z,16.90
2018-06-20T12:11:59.341Z,17.70
2018-06-20T12:14:35.740Z,16.10
2018-06-20T12:17:05.071Z,16.37
2018-06-20T12:19:40.846Z,14.97
2018-06-20T12:22:16.226Z,16.90
2018-06-20T12:24:52.802Z,15.60
2018-06-20T12:27:28.340Z,16.00
2018-06-20T12:30:03.828Z,14.33
2018-06-20T12:32:39.262Z,14.37
2018-06-20T12:35:14.693Z,13.60
2018-06-20T12:37:50.474Z,11.37
2018-06-20T12:40:25.079Z,13.47
2018-06-20T12:43:00.431Z,15.13
2018-06-20T12:45:31.298Z,12.90
2018-06-20T12:48:01.572Z,14.27
2018-06-20T12:50:31.834Z,12.67
2018-06-20T12:53:02.316Z,11.57
2018-06-20T12:55:32.609Z,11.57
2018-06-20T12:58:03.112Z,11.37
2018-06-20T13:00:33.330Z,11.70
2018-06-20T13:03:03.952Z,11.23
2018-06-20T13:05:34.354Z,11.87
2018-06-20T13:08:04.686Z,10.83
2018-06-20T13:10:35.333Z,11.37
2018-06-20T13:13:07.745Z,13.67
2018-06-20T13:15:38.332Z,11.17
2018-06-20T13:18:09.137Z,9.47
2018-06-20T13:20:39.903Z,9.07
2018-06-20T13:23:10.085Z,9.60
2018-06-20T13:25:40.546Z,7.73
2018-06-20T13:28:10.851Z,6.60
2018-06-20T13:30:41.710Z,6.67
2018-06-20T13:33:17.898Z,7.40
2018-06-20T13:35:52.733Z,6.23
2018-06-20T13:38:28.329Z,5.63
2018-06-20T13:41:03.680Z,5.07
2018-06-20T13:43:39.358Z,5.47
2018-06-20T13:46:14.728Z,4.53
2018-06-20T13:48:45.130Z,4.87
2018-06-20T13:51:16.008Z,4.63
2018-06-20T13:53:49.225Z,4.20
2018-06-20T13:56:19.981Z,3.97
2018-06-20T13:58:52.197Z,5.20
2018-06-20T14:01:23.070Z,4.83
2018-06-20T14:03:57.985Z,5.10
2018-06-20T14:06:30.370Z,4.87
2018-06-20T14:09:05.713Z,4.30
2018-06-20T14:11:42.376Z,3.70
2018-06-20T14:14:14.287Z,3.43
2018-06-20T14:16:45.015Z,4.80
2018-06-20T14:19:15.577Z,4.50
2018-06-20T14:21:46.198Z,4.27
2018-06-20T14:24:16.625Z,4.03
2018-06-20T14:26:46.910Z,4.20
2018-06-20T14:29:17.082Z,4.80
2018-06-20T14:31:54.536Z,4.10
2018-06-20T14:34:29.879Z,3.90
2018-06-20T14:37:05.237Z,4.00
2018-06-20T14:41:41.853Z,3.73
2018-06-20T14:44:12.313Z,3.57
2018-06-20T14:46:42.814Z,4.23
2018-06-20T14:49:13.050Z,3.17
2018-06-20T14:51:43.285Z,2.97
2018-06-20T14:54:13.837Z,2.83
2018-06-20T14:56:44.094Z,3.50
2018-06-20T14:59:14.738Z,3.60
2018-06-20T15:01:45.933Z,3.03
2018-06-20T15:04:16.236Z,3.33
2018-06-20T15:06:46.752Z,3.90
2018-06-20T15:09:16.936Z,3.33
2018-06-20T15:11:47.173Z,3.40
2018-06-20T15:14:17.718Z,3.17
2018-06-20T15:16:53.016Z,4.10
2018-06-20T15:19:23.610Z,4.23
2018-06-20T15:21:53.870Z,4.30
2018-06-20T15:24:24.065Z,3.10
2018-06-20T15:27:00.623Z,3.40
2018-06-20T15:29:36.289Z,4.17
2018-06-20T15:32:11.826Z,3.10
2018-06-20T15:34:47.931Z,3.70
2018-06-20T15:37:23.082Z,3.60
2018-06-20T15:39:53.293Z,3.90
2018-06-20T15:42:23.493Z,3.67
2018-06-20T15:44:53.700Z,3.70
2018-06-20T15:47:23.870Z,2.77
2018-06-20T15:49:54.546Z,3.43
2018-06-20T15:52:25.967Z,3.20
2018-06-20T15:54:56.321Z,3.50
2018-06-20T15:57:26.581Z,3.73
2018-06-20T15:59:57.161Z,3.37
2018-06-20T16:02:27.382Z,3.83
2018-06-20T16:04:57.597Z,3.63
2018-06-20T16:07:29.384Z,3.30
2018-06-20T16:10:02.812Z,2.87
2018-06-20T16:12:33.732Z,3.10
2018-06-20T16:15:05.585Z,3.50
2018-06-20T16:17:36.355Z,3.20
2018-06-20T16:20:13.942Z,2.90
2018-06-20T16:22:52.372Z,3.03
2018-06-20T16:25:28.138Z,3.07
2018-06-20T16:28:03.498Z,2.87
2018-06-20T16:30:35.977Z,2.90
2018-06-20T16:33:06.354Z,2.43
2018-06-20T16:35:37.310Z,2.73
2018-06-20T16:38:08.074Z,2.50
2018-06-20T16:40:40.183Z,2.67
2018-06-20T16:43:11.961Z,2.47
2018-06-20T16:45:43.507Z,3.23
2018-06-20T16:48:15.095Z,2.60
2018-06-20T16:50:45.881Z,2.50
2018-06-20T16:53:16.050Z,2.83
2018-06-20T16:55:46.438Z,2.57
2018-06-20T16:58:17.010Z,3.07
2018-06-20T17:00:47.653Z,2.50
2018-06-20T17:03:17.981Z,2.50
2018-06-20T17:05:48.892Z,3.00
2018-06-20T17:08:19.185Z,2.87
2018-06-20T17:10:49.026Z,2.47
2018-06-20T17:13:24.544Z,2.83
2018-06-20T17:15:59.930Z,2.67
2018-06-20T17:18:35.182Z,2.97
2018-06-20T17:21:10.846Z,2.80
2018-06-20T17:23:46.492Z,2.60
2018-06-20T17:26:17.067Z,2.53
2018-06-20T17:28:47.447Z,2.70
2018-06-20T17:31:17.652Z,2.57
2018-06-20T17:33:47.963Z,2.40
2018-06-20T17:36:18.262Z,2.40
2018-06-20T17:38:48.498Z,2.50
2018-06-20T17:41:19.060Z,2.40
2018-06-20T17:43:49.276Z,2.40
2018-06-20T17:46:19.849Z,2.47
2018-06-20T17:48:50.403Z,2.30
2018-06-20T17:51:20.980Z,2.40
2018-06-20T17:53:51.639Z,2.47
2018-06-20T17:56:22.490Z,2.40
2018-06-20T17:58:52.593Z,2.80
2018-06-20T18:01:22.706Z,2.63
2018-06-20T18:03:52.918Z,2.73
2018-06-20T18:06:28.453Z,2.77
2018-06-20T18:09:04.079Z,2.50
2018-06-20T18:11:39.494Z,2.77
2018-06-20T18:16:22.116Z,2.80
2018-06-20T18:18:52.723Z,11.00
2018-06-20T18:21:23.337Z,13.17
2018-06-20T18:23:53.902Z,15.63
2018-06-20T18:26:24.731Z,15.23
2018-06-20T18:28:55.102Z,17.17
2018-06-20T18:31:25.674Z,17.67
2018-06-20T18:33:58.328Z,16.70
2018-06-20T18:36:28.835Z,16.87
2018-06-20T18:38:59.562Z,17.00
2018-06-20T18:41:30.193Z,18.57
2018-06-20T18:44:00.812Z,17.90
2018-06-20T18:46:31.109Z,17.37
2018-06-20T18:49:00.811Z,21.10
2018-06-20T18:51:30.945Z,21.00
2018-06-20T18:54:02.056Z,21.30
2018-06-20T18:56:33.911Z,22.77
2018-06-20T18:59:09.400Z,22.67
2018-06-20T19:01:44.136Z,22.87
2018-06-20T19:04:19.451Z,22.80
2018-06-20T19:06:54.411Z,21.63
2018-06-20T19:09:26.441Z,20.73
2018-06-20T19:11:56.646Z,22.20
2018-06-20T19:14:33.957Z,21.80
2018-06-20T19:17:03.669Z,21.07
2018-06-20T19:19:34.002Z,20.97
2018-06-20T19:22:04.230Z,22.63
2018-06-20T19:24:34.761Z,22.57
2018-06-20T19:27:05.503Z,22.83
2018-06-20T19:29:36.126Z,22.60
2018-06-20T19:32:06.357Z,25.17
2018-06-20T19:34:37.284Z,23.90
2018-06-20T19:37:07.464Z,25.47
2018-06-20T19:39:42.754Z,26.60
2018-06-20T19:42:12.903Z,26.13
2018-06-20T19:44:43.127Z,28.60
2018-06-20T19:47:15.387Z,27.53
2018-06-20T19:49:47.035Z,28.03
2018-06-20T19:52:17.381Z,29.80
2018-06-20T19:54:48.247Z,29.70
2018-06-20T19:57:20.854Z,28.23
2018-06-20T19:59:58.566Z,27.07
2018-06-20T20:02:30.267Z,27.07
2018-06-20T20:05:04.183Z,26.67
2018-06-20T20:07:34.499Z,25.13
2018-06-20T20:10:04.678Z,25.17
2018-06-20T20:12:35.901Z,25.27
2018-06-20T20:15:09.303Z,25.40
2018-06-20T20:17:41.661Z,23.83
2018-06-20T20:20:13.392Z,24.83
2018-06-20T20:22:43.637Z,25.13
2018-06-20T20:25:14.815Z,24.80
2018-06-20T20:27:49.642Z,26.17
2018-06-20T20:30:21.027Z,25.63
2018-06-20T20:32:53.312Z,24.97
2018-06-20T20:35:23.786Z,27.03
2018-06-20T20:37:54.082Z,27.40
2018-06-20T20:40:24.658Z,25.80
2018-06-20T20:42:55.001Z,26.27
2018-06-20T20:45:25.239Z,28.00
2018-06-20T20:47:55.855Z,26.13
2018-06-20T20:50:25.525Z,27.17
2018-06-20T20:52:58.969Z,27.27
2018-06-20T20:55:30.528Z,26.83
2018-06-20T20:58:00.928Z,26.70
2018-06-20T21:00:31.358Z,28.80
2018-06-20T21:03:02.334Z,29.40
2018-06-20T21:05:36.039Z,27.53
2018-06-20T21:08:07.257Z,28.97
2018-06-20T21:10:37.466Z,29.20
2018-06-20T21:13:08.892Z,27.17
2018-06-20T21:15:39.653Z,29.77
2018-06-20T21:18:11.261Z,29.10
2018-06-20T21:20:41.977Z,31.33
2018-06-20T21:23:12.234Z,30.17
2018-06-20T21:25:53.620Z,31.97
2018-06-20T21:28:24.798Z,31.23
2018-06-20T21:30:56.166Z,31.43
2018-06-20T21:33:32.554Z,31.37
2018-06-20T21:36:05.836Z,31.30
2018-06-20T21:38:46.831Z,33.83
2018-06-20T21:41:25.468Z,33.53
2018-06-20T21:43:58.271Z,38.47
2018-06-20T21:46:28.763Z,35.47
2018-06-20T21:49:01.574Z,35.13
2018-06-20T21:51:38.246Z,35.30
2018-06-20T21:54:10.826Z,36.87
2018-06-20T21:56:42.282Z,34.10
2018-06-20T21:59:19.795Z,36.07
2018-06-20T22:01:56.059Z,34.30
2018-06-20T22:04:26.734Z,34.90
2018-06-20T22:06:57.571Z,35.00
2018-06-20T22:09:28.862Z,34.93
2018-06-20T22:11:59.400Z,37.10
2018-06-20T22:14:29.899Z,39.67
2018-06-20T22:17:00.497Z,37.27
2018-06-20T22:19:30.950Z,38.37
2018-06-20T22:22:01.402Z,37.33
2018-06-20T22:24:33.525Z,38.87
2018-06-20T22:27:09.398Z,37.80
2018-06-20T22:29:40.518Z,35.33
2018-06-20T22:32:15.702Z,35.97
2018-06-20T22:34:47.110Z,36.60
2018-06-20T22:37:18.187Z,34.93
2018-06-20T22:39:50.189Z,36.53
2018-06-20T22:42:20.891Z,37.43
2018-06-20T22:44:52.066Z,36.77
2018-06-20T22:47:22.283Z,38.60
2018-06-20T22:49:53.531Z,38.07
2018-06-20T22:52:24.567Z,39.43
2018-06-20T22:54:54.813Z,38.13
2018-06-20T22:57:25.023Z,39.77
2018-06-20T22:59:54.992Z,38.27
2018-06-20T23:02:25.146Z,38.13
2018-06-20T23:04:55.444Z,38.33
2018-06-20T23:07:26.274Z,37.90
2018-06-20T23:09:56.503Z,37.90
2018-06-20T23:12:26.775Z,37.43
2018-06-20T23:14:57.383Z,39.70
2018-06-20T23:17:27.799Z,39.30
2018-06-20T23:19:58.055Z,39.23
2018-06-20T23:22:28.468Z,41.37
2018-06-20T23:24:58.751Z,41.43
2018-06-20T23:27:28.903Z,40.90
2018-06-20T23:29:59.015Z,41.20
2018-06-20T23:32:29.759Z,40.67
2018-06-20T23:35:00.299Z,41.33
2018-06-20T23:37:30.875Z,41.80
2018-06-20T23:40:01.145Z,42.97
2018-06-20T23:42:31.222Z,42.03
2018-06-20T23:45:01.458Z,44.23
2018-06-20T23:47:31.782Z,41.07
2018-06-20T23:50:02.325Z,43.33
2018-06-20T23:52:32.659Z,43.87
2018-06-20T23:55:03.286Z,47.20
2018-06-20T23:57:33.594Z,45.97
